Time;durP1;ratioP1;P1;durP2;ratioP2;P2;SDS_P1;SDS_P2;PMS_P1;PMS_P2;Temp;Humidity;BMP_temperature;BMP_pressure;BME280_temperature;BME280_humidity;BME280_pressure;Samples;Min_cycle;Max_cycle;Signal;HPM_P1;HPM_P2
2023/05/21 20:44:14;;;;;;;;;12.25;11.25;;;;;21.12;43.99;101125.84;5349494;22;45562;-46
2023/05/21 20:46:40;;;;;;;;;13.75;11.75;;;;;21.14;44.24;101125.75;5018027;28;45218;-47
2023/05/21 20:49:06;;;;;;;;;14.00;11.75;;;;;21.13;43.99;101126.69;5016400;28;46797;-41
2023/05/21 20:51:32;;;;;;;;;11.25;11.25;;;;;21.14;44.75;101137.16;5016144;28;45471;-48
2023/05/21 20:53:57;;;;;;;;;10.75;10.50;;;;;21.13;44.12;101124.03;5017250;28;45347;-39
2023/05/21 20:56:27;;;;;;;;;11.50;10.25;;;;;21.14;44.57;101131.03;5016805;28;45283;-40
2023/05/21 20:58:53;;;;;;;;;11.25;10.25;;;;;21.14;44.42;101121.34;5017014;28;45281;-38
2023/05/21 21:01:19;;;;;;;;;17.50;12.00;;;;;21.15;44.41;101122.19;5017008;28;45449;-50
2023/05/21 21:03:45;;;;;;;;;11.00;10.25;;;;;21.15;44.56;101123.06;5015316;28;45439;-38
2023/05/21 21:06:14;;;;;;;;;11.00;11.00;;;;;21.15;44.37;101122.19;5012668;28;45687;-39
2023/05/21 21:08:40;;;;;;;;;11.75;10.00;;;;;21.15;44.79;101125.69;5006608;28;47039;-42
2023/05/21 21:11:09;;;;;;;;;14.00;11.00;;;;;21.16;44.62;101129.16;5016364;28;45409;-42
2023/05/21 21:13:35;;;;;;;;;11.25;9.75;;;;;21.16;44.75;101132.66;5014839;28;45486;-40
2023/05/21 21:16:01;;;;;;;;;10.25;8.25;;;;;21.16;44.90;101121.25;5024981;28;45254;-41
2023/05/21 21:18:26;;;;;;;;;12.00;10.00;;;;;21.16;44.59;101123.88;5037207;28;46220;-37
2023/05/21 21:20:52;;;;;;;;;10.50;10.00;;;;;21.16;44.57;101123.88;5037101;28;45418;-49
2023/05/21 21:23:18;;;;;;;;;10.75;10.25;;;;;21.15;44.56;101122.19;5037165;28;45353;-49
2023/05/21 21:25:43;;;;;;;;;10.25;9.25;;;;;21.15;44.38;101128.31;5037244;28;45578;-49
2023/05/21 21:28:09;;;;;;;;;10.00;10.00;;;;;21.14;44.19;101129.25;5051437;28;69294;-42
2023/05/21 21:30:34;;;;;;;;;9.75;9.50;;;;;21.15;44.43;101130.09;5037159;28;45434;-46
2023/05/21 21:33:00;;;;;;;;;12.25;10.50;;;;;21.14;44.38;101125.75;5036923;28;45337;-54
2023/05/21 21:35:25;;;;;;;;;12.75;12.00;;;;;21.15;44.58;101143.28;5037275;28;45257;-48
2023/05/21 21:37:50;;;;;;;;;10.25;10.25;;;;;21.14;44.19;101131.03;5036710;28;46359;-46
2023/05/21 21:40:16;;;;;;;;;10.50;9.50;;;;;21.15;44.26;101140.63;5031632;28;51497;-50
2023/05/21 21:42:41;;;;;;;;;10.75;10.25;;;;;21.15;44.32;101130.09;5015702;28;45360;-52
2023/05/21 21:45:07;;;;;;;;;13.00;11.00;;;;;21.14;44.46;101133.66;5017329;28;45315;-51
2023/05/21 21:47:32;;;;;;;;;11.50;11.50;;;;;21.13;44.36;101138.09;5015361;28;46608;-51
2023/05/21 21:49:58;;;;;;;;;10.25;10.25;;;;;21.14;44.39;101136.28;5016261;28;45697;-50
2023/05/21 21:52:26;;;;;;;;;11.00;10.25;;;;;21.13;44.72;101129.31;5016890;28;45540;-50
2023/05/21 21:54:52;;;;;;;;;11.00;11.00;;;;;21.13;44.32;101126.69;5016889;28;45331;-54
2023/05/21 21:57:17;;;;;;;;;12.00;10.50;;;;;21.14;44.45;101133.66;5016490;28;45419;-53
2023/05/21 21:59:42;;;;;;;;;14.00;10.67;;;;;21.13;44.64;101129.31;5016231;28;54400;-54
2023/05/21 22:02:08;;;;;;;;;11.25;11.25;;;;;21.13;44.51;101135.47;5017085;28;45411;-48
2023/05/21 22:04:33;;;;;;;;;12.00;11.00;;;;;21.13;44.39;101134.59;5015355;28;45409;-49
2023/05/21 22:06:58;;;;;;;;;13.00;12.25;;;;;21.13;44.43;101134.59;5016347;28;46144;-49
2023/05/21 22:09:24;;;;;;;;;11.75;11.00;;;;;21.12;44.50;101139.03;5016308;28;45534;-55
2023/05/21 22:11:49;;;;;;;;;10.75;9.00;;;;;21.12;44.72;101144.28;5016736;28;45487;-52
2023/05/21 22:14:17;;;;;;;;;6.75;5.25;;;;;21.13;44.18;101137.22;5015788;28;45528;-45
2023/05/21 22:16:42;;;;;;;;;11.00;10.25;;;;;21.11;44.44;101136.47;5015556;28;46241;-48
2023/05/21 22:19:08;;;;;;;;;13.75;9.25;;;;;21.12;44.25;101138.16;5016334;28;49489;-51
2023/05/21 22:21:34;;;;;;;;;8.75;8.00;;;;;21.12;44.48;101138.16;5016542;28;45291;-53
2023/05/21 22:23:59;;;;;;;;;14.50;11.25;;;;;21.12;44.18;101144.28;5016091;28;45276;-47
2023/05/21 22:26:24;;;;;;;;;11.00;9.50;;;;;21.12;44.37;101138.16;5016240;28;46124;-53
2023/05/21 22:28:50;;;;;;;;;10.67;9.00;;;;;21.11;44.39;101137.31;5016037;28;55939;-54
2023/05/21 22:31:16;;;;;;;;;12.75;10.00;;;;;21.11;44.44;101134.69;5016068;28;46754;-53
2023/05/21 22:33:42;;;;;;;;;8.75;8.50;;;;;21.10;44.31;101130.34;5016492;28;45390;-49
2023/05/21 22:36:08;;;;;;;;;10.25;10.25;;;;;21.12;44.33;101132.88;5016365;28;46964;-44
2023/05/21 22:38:33;;;;;;;;;9.50;9.00;;;;;21.11;44.32;101133.84;5015925;28;45411;-48
2023/05/21 22:40:58;;;;;;;;;10.50;10.50;;;;;21.11;44.27;101136.47;5016156;28;45429;-53
2023/05/21 22:43:24;;;;;;;;;11.00;9.25;;;;;21.11;44.26;101139.13;5016205;28;45304;-41
2023/05/21 22:45:50;;;;;;;;;10.00;9.25;;;;;21.11;44.32;101142.59;5015895;28;46356;-44
2023/05/21 22:48:16;;;;;;;;;7.75;7.75;;;;;21.10;44.42;101135.59;5015819;28;48069;-48
2023/05/21 22:50:43;;;;;;;;;8.25;8.25;;;;;21.11;44.38;101142.59;5016119;28;45346;-44
2023/05/21 22:53:08;;;;;;;;;10.75;8.00;;;;;21.10;44.27;101138.25;5016527;28;45533;-45
2023/05/21 22:55:34;;;;;;;;;9.00;9.00;;;;;21.09;44.27;101139.19;5014511;28;46246;-38
2023/05/21 22:57:59;;;;;;;;;10.00;9.00;;;;;21.10;44.46;101150.59;5015762;28;45307;-43
2023/05/21 23:00:25;;;;;;;;;11.75;10.00;;;;;21.10;44.31;101150.59;5015902;28;45492;-40
2023/05/21 23:02:50;;;;;;;;;10.75;9.75;;;;;21.10;44.17;101146.16;5031299;28;45579;-48
2023/05/21 23:05:16;;;;;;;;;10.00;8.00;;;;;21.10;44.52;101150.59;5015497;28;52368;-48
2023/05/21 23:07:41;;;;;;;;;8.00;8.00;;;;;21.10;44.33;101145.31;5015822;28;45426;-54
2023/05/21 23:10:07;;;;;;;;;9.00;9.00;;;;;21.10;44.31;101150.59;5015658;28;45414;-53
2023/05/21 23:12:33;;;;;;;;;7.00;7.00;;;;;21.10;44.20;101140.03;5015896;28;45533;-45
2023/05/21 23:14:58;;;;;;;;;9.00;8.25;;;;;21.10;44.18;101142.69;5015345;28;45340;-50
2023/05/21 23:17:23;;;;;;;;;8.25;8.00;;;;;21.10;44.17;101151.41;5015649;28;45307;-48
2023/05/21 23:19:51;;;;;;;;;6.75;6.75;;;;;21.10;44.46;101142.69;5015643;28;45339;-48
2023/05/21 23:22:19;;;;;;;;;8.25;8.25;;;;;21.11;44.20;101147.03;5015648;28;45190;-49
2023/05/21 23:24:44;;;;;;;;;8.50;7.00;;;;;21.09;44.47;101144.44;5015421;28;45300;-52
2023/05/21 23:27:09;;;;;;;;;10.00;9.00;;;;;21.09;44.31;101140.97;5015753;28;45236;-45
2023/05/21 23:29:35;;;;;;;;;9.00;9.00;;;;;21.10;44.34;101146.16;5015452;28;45384;-49
2023/05/21 23:32:00;;;;;;;;;13.00;8.25;;;;;21.10;44.24;101145.31;5015657;28;45579;-51
2023/05/21 23:34:25;;;;;;;;;10.00;7.75;;;;;21.10;44.27;101145.31;5015219;28;45213;-47
2023/05/21 23:36:51;;;;;;;;;12.25;10.00;;;;;21.10;44.08;101145.31;5017928;28;45446;-55
2023/05/21 23:39:17;;;;;;;;;10.00;8.00;;;;;21.08;44.17;101141.91;5017149;28;55673;-55
2023/05/21 23:41:42;;;;;;;;;8.75;7.25;;;;;21.10;44.45;101147.94;5034659;28;45408;-55
2023/05/21 23:44:08;;;;;;;;;9.25;9.00;;;;;21.10;44.09;101145.31;5018612;28;45391;-55
2023/05/21 23:46:33;;;;;;;;;11.50;8.00;;;;;21.09;44.34;101144.44;5017344;28;45415;-54
2023/05/21 23:48:59;;;;;;;;;7.75;7.00;;;;;21.08;43.87;101141.91;5018612;28;45311;-54
2023/05/21 23:51:24;;;;;;;;;10.00;9.00;;;;;21.09;44.31;101143.59;5017518;28;45450;-49
2023/05/21 23:53:49;;;;;;;;;8.00;8.00;;;;;21.09;44.12;101143.59;5018462;28;45324;-53
2023/05/21 23:56:15;;;;;;;;;9.67;9.00;;;;;21.09;44.08;101139.19;5018556;28;59051;-54
2023/05/21 23:58:40;;;;;;;;;8.25;7.50;;;;;21.08;44.13;101136.63;5019195;28;45412;-53
